createdAt,value
2023-05-04T00:00:57.313Z,0.00
2023-05-04T00:01:57.787Z,0.00
2023-05-04T00:02:58.315Z,0.00
2023-05-04T00:03:59.053Z,0.00
2023-05-04T00:04:59.266Z,0.00
2023-05-04T00:05:59.372Z,0.00
2023-05-04T00:06:59.883Z,0.00
2023-05-04T00:08:00.380Z,0.00
2023-05-04T00:09:00.901Z,0.00
2023-05-04T00:10:01.550Z,0.00
2023-05-04T00:11:01.501Z,0.00
2023-05-04T00:12:01.997Z,0.00
2023-05-04T00:13:02.567Z,0.00
2023-05-04T00:14:03.080Z,0.00
2023-05-04T00:15:03.555Z,0.00
2023-05-04T00:16:04.173Z,0.00
2023-05-04T00:17:04.694Z,0.00
2023-05-04T00:18:05.251Z,0.00
2023-05-04T00:19:05.249Z,0.00
2023-05-04T00:20:05.977Z,0.00
2023-05-04T00:21:06.053Z,0.00
2023-05-04T00:22:06.560Z,0.00
2023-05-04T00:23:07.099Z,0.00
2023-05-04T00:24:07.644Z,0.00
2023-05-04T00:25:08.173Z,0.00
2023-05-04T00:26:08.703Z,0.00
2023-05-04T00:27:09.239Z,0.00
2023-05-04T00:28:09.750Z,0.00
2023-05-04T00:29:10.225Z,0.00
2023-05-04T00:30:10.714Z,0.00
2023-05-04T00:31:11.237Z,0.00
2023-05-04T00:32:11.740Z,0.00
2023-05-04T00:33:12.261Z,0.00
2023-05-04T00:34:12.753Z,0.00
2023-05-04T00:35:13.236Z,0.00
2023-05-04T00:36:13.714Z,0.00
2023-05-04T00:37:14.210Z,0.00
2023-05-04T00:38:14.702Z,0.00
2023-05-04T00:39:15.212Z,0.00
2023-05-04T00:40:15.708Z,0.00
2023-05-04T00:41:16.233Z,0.00
2023-05-04T00:42:16.754Z,0.00
2023-05-04T00:43:17.247Z,0.00
2023-05-04T00:44:17.744Z,0.00
2023-05-04T00:45:18.241Z,0.00
2023-05-04T00:46:18.746Z,0.00
2023-05-04T00:47:19.121Z,0.00
2023-05-04T00:48:19.631Z,0.00
2023-05-04T00:49:20.132Z,0.00
2023-05-04T00:50:20.659Z,0.00
2023-05-04T00:51:21.182Z,0.00
2023-05-04T00:52:21.712Z,0.00
2023-05-04T00:53:22.248Z,0.00
2023-05-04T00:54:22.748Z,0.00
2023-05-04T00:55:23.258Z,0.00
2023-05-04T00:56:23.742Z,0.00
2023-05-04T00:57:24.339Z,0.00
2023-05-04T00:58:24.845Z,0.00
2023-05-04T00:59:25.353Z,0.00
2023-05-04T01:00:26.002Z,0.00
2023-05-04T01:01:26.580Z,0.00
2023-05-04T01:02:27.198Z,0.00
2023-05-04T01:03:27.808Z,0.00
2023-05-04T01:04:27.818Z,0.00
2023-05-04T01:05:28.369Z,0.00
2023-05-04T01:06:28.925Z,0.00
2023-05-04T01:07:29.452Z,0.00
2023-05-04T01:08:29.998Z,0.00
2023-05-04T01:09:30.545Z,0.00
2023-05-04T01:10:31.033Z,0.00
2023-05-04T01:11:31.548Z,0.00
2023-05-04T01:12:32.131Z,0.00
2023-05-04T01:13:32.672Z,0.00
2023-05-04T01:14:33.210Z,0.00
2023-05-04T01:15:33.687Z,0.00
2023-05-04T01:16:34.293Z,0.00
2023-05-04T01:17:34.331Z,0.00
2023-05-04T01:18:34.833Z,0.00
2023-05-04T01:19:35.345Z,0.00
2023-05-04T01:20:35.870Z,0.00
2023-05-04T01:21:36.400Z,0.00
2023-05-04T01:22:37.039Z,0.00
2023-05-04T01:23:37.677Z,0.00
2023-05-04T01:24:38.192Z,0.00
2023-05-04T01:25:38.729Z,0.00
2023-05-04T01:26:39.225Z,0.00
2023-05-04T01:27:39.740Z,0.00
2023-05-04T01:28:40.247Z,0.00
2023-05-04T01:29:40.792Z,0.00
2023-05-04T01:30:41.364Z,0.00
2023-05-04T01:31:41.925Z,0.00
2023-05-04T01:32:42.490Z,0.00
2023-05-04T01:33:43.015Z,0.00
2023-05-04T01:34:43.542Z,0.00
2023-05-04T01:35:44.077Z,0.00
2023-05-04T01:36:44.632Z,0.00
2023-05-04T01:37:45.167Z,0.00
2023-05-04T01:38:45.789Z,0.00
2023-05-04T01:39:46.297Z,0.00
2023-05-04T01:40:46.817Z,0.00
2023-05-04T01:41:47.301Z,0.00
2023-05-04T01:42:47.821Z,0.00
2023-05-04T01:43:48.434Z,0.00
2023-05-04T01:44:48.984Z,0.00
2023-05-04T01:45:49.503Z,0.00
2023-05-04T01:46:50.084Z,0.00
2023-05-04T01:47:50.637Z,0.00
2023-05-04T01:48:51.185Z,0.00
2023-05-04T01:49:51.677Z,0.00
2023-05-04T01:50:52.192Z,0.00
2023-05-04T01:51:52.694Z,0.00
2023-05-04T01:52:53.232Z,0.00
2023-05-04T01:53:53.718Z,0.00
2023-05-04T01:54:54.241Z,0.00
2023-05-04T01:55:54.792Z,0.00
2023-05-04T01:56:55.322Z,0.00
2023-05-04T01:57:55.846Z,0.00
2023-05-04T01:58:56.354Z,0.00
2023-05-04T01:59:56.876Z,0.00
2023-05-04T02:00:57.419Z,0.00
2023-05-04T02:01:57.987Z,0.00
2023-05-04T02:02:58.649Z,0.00
2023-05-04T02:03:59.418Z,0.00
2023-05-04T02:04:59.444Z,0.00
2023-05-04T02:05:59.975Z,0.00
2023-05-04T02:07:00.511Z,0.00
2023-05-04T02:08:01.092Z,0.00
2023-05-04T02:09:01.620Z,0.00
2023-05-04T02:10:02.411Z,0.00
2023-05-04T02:11:02.642Z,0.00
2023-05-04T02:12:03.181Z,0.00
2023-05-04T02:13:03.804Z,0.00
2023-05-04T02:14:04.387Z,0.00
2023-05-04T02:15:04.930Z,0.00
2023-05-04T02:16:05.482Z,0.00
2023-05-04T02:17:06.099Z,0.00
2023-05-04T02:18:06.674Z,0.00
2023-05-04T02:19:07.301Z,0.00
2023-05-04T02:20:07.879Z,0.00
2023-05-04T02:21:08.478Z,0.00
2023-05-04T02:22:09.070Z,0.00
2023-05-04T02:23:09.639Z,0.00
2023-05-04T02:24:10.217Z,0.00
2023-05-04T02:25:10.784Z,0.00
2023-05-04T02:26:11.328Z,0.00
2023-05-04T02:27:11.861Z,0.00
2023-05-04T02:28:12.397Z,0.00
2023-05-04T02:29:12.933Z,0.00
2023-05-04T02:30:13.471Z,0.00
2023-05-04T02:31:14.038Z,0.00
2023-05-04T02:32:14.602Z,0.00
2023-05-04T02:33:15.167Z,0.00
2023-05-04T02:34:15.687Z,0.00
2023-05-04T02:35:15.766Z,0.00
2023-05-04T02:36:16.300Z,0.00
2023-05-04T02:37:16.842Z,0.00
2023-05-04T02:38:17.371Z,0.00
2023-05-04T02:39:17.916Z,0.00
2023-05-04T02:40:18.520Z,0.00
2023-05-04T02:41:19.154Z,0.00
2023-05-04T02:42:19.747Z,0.00
2023-05-04T02:43:20.380Z,0.00
2023-05-04T02:44:20.978Z,0.00
2023-05-04T02:45:21.573Z,0.00
2023-05-04T02:46:22.233Z,0.00
2023-05-04T02:47:22.318Z,0.00
2023-05-04T02:48:22.926Z,0.00
2023-05-04T02:49:23.541Z,0.00
2023-05-04T02:50:24.145Z,0.00
2023-05-04T02:51:24.751Z,0.00
2023-05-04T02:52:25.360Z,0.00
2023-05-04T02:53:25.968Z,0.00
2023-05-04T02:54:26.557Z,0.00
2023-05-04T02:55:27.133Z,0.00
2023-05-04T02:56:27.694Z,0.00
2023-05-04T02:57:28.248Z,0.00
2023-05-04T02:58:28.780Z,0.00
2023-05-04T02:59:29.386Z,0.00
2023-05-04T03:00:29.982Z,0.00
2023-05-04T03:01:32.117Z,0.00
2023-05-04T03:02:31.131Z,0.00
2023-05-04T03:03:31.151Z,0.00
2023-05-04T03:04:31.876Z,0.00
2023-05-04T03:05:31.916Z,0.00
2023-05-04T03:06:32.515Z,0.00
2023-05-04T03:07:33.069Z,0.00
2023-05-04T03:08:33.640Z,0.00
2023-05-04T03:09:34.197Z,0.00
2023-05-04T03:10:34.749Z,0.00
2023-05-04T03:11:35.321Z,0.00
2023-05-04T03:12:35.921Z,0.00
2023-05-04T03:13:36.556Z,0.00
2023-05-04T03:14:37.075Z,0.00
2023-05-04T03:15:37.577Z,0.00
2023-05-04T03:16:38.177Z,0.00
2023-05-04T03:17:38.766Z,0.00
2023-05-04T03:18:40.309Z,0.00
2023-05-04T03:19:39.601Z,0.00
2023-05-04T03:20:40.147Z,0.00
2023-05-04T03:21:40.680Z,0.00
2023-05-04T03:22:41.190Z,0.00
2023-05-04T03:23:41.708Z,0.00
2023-05-04T03:24:42.242Z,0.00
2023-05-04T03:25:42.817Z,0.00
2023-05-04T03:26:43.374Z,0.00
2023-05-04T03:27:43.893Z,0.00
2023-05-04T03:28:44.450Z,0.00
2023-05-04T03:29:44.989Z,0.00
2023-05-04T03:30:45.578Z,0.00
2023-05-04T03:31:46.221Z,0.00
2023-05-04T03:32:46.320Z,0.00
2023-05-04T03:33:46.906Z,0.00
2023-05-04T03:34:47.471Z,0.00
2023-05-04T03:35:48.078Z,0.00
2023-05-04T03:36:48.674Z,0.00
2023-05-04T03:37:49.270Z,0.00
2023-05-04T03:38:49.853Z,0.00
2023-05-04T03:39:50.464Z,0.00
2023-05-04T03:40:51.075Z,0.00
2023-05-04T03:41:51.668Z,0.00
2023-05-04T03:42:52.381Z,0.00
2023-05-04T03:43:52.582Z,0.00
2023-05-04T03:44:53.193Z,0.00
2023-05-04T03:45:53.862Z,0.00
2023-05-04T03:46:54.478Z,0.00
2023-05-04T03:47:55.118Z,0.00
2023-05-04T03:48:55.748Z,0.00
2023-05-04T03:49:56.366Z,0.00
2023-05-04T03:50:56.981Z,0.00
2023-05-04T03:51:57.589Z,0.00
2023-05-04T03:52:58.197Z,0.00
2023-05-04T03:53:58.778Z,0.00
2023-05-04T03:54:59.357Z,0.00
2023-05-04T03:55:59.957Z,0.00
2023-05-04T03:57:00.554Z,0.00
2023-05-04T03:58:01.100Z,5.62
2023-05-04T03:59:01.683Z,5.62
2023-05-04T04:00:02.456Z,5.62
2023-05-04T04:01:02.660Z,5.62
2023-05-04T04:02:03.343Z,5.62
2023-05-04T04:03:03.543Z,5.62
2023-05-04T04:04:03.944Z,5.62
2023-05-04T04:05:04.101Z,5.62
2023-05-04T04:06:04.717Z,5.62
2023-05-04T04:07:05.321Z,5.62
2023-05-04T04:08:05.946Z,11.25
2023-05-04T04:09:06.592Z,11.25
2023-05-04T04:10:07.376Z,11.25
2023-05-04T04:11:07.504Z,11.25
2023-05-04T04:12:08.117Z,11.25
2023-05-04T04:13:08.769Z,11.25
2023-05-04T04:14:08.891Z,11.25
2023-05-04T04:15:09.525Z,11.25
2023-05-04T04:16:10.165Z,16.88
2023-05-04T04:17:10.808Z,16.88
2023-05-04T04:18:11.472Z,16.88
2023-05-04T04:19:12.149Z,16.88
2023-05-04T04:20:12.223Z,16.88
2023-05-04T04:21:12.839Z,16.88
2023-05-04T04:22:13.464Z,16.88
2023-05-04T04:23:14.116Z,22.50
2023-05-04T04:24:14.720Z,22.50
2023-05-04T04:25:15.335Z,22.50
2023-05-04T04:26:15.936Z,22.50
2023-05-04T04:27:16.535Z,22.50
2023-05-04T04:28:17.165Z,22.50
2023-05-04T04:29:17.785Z,28.12
2023-05-04T04:30:18.442Z,28.12
2023-05-04T04:31:19.166Z,28.12
2023-05-04T04:32:19.245Z,28.12
2023-05-04T04:33:19.879Z,28.12
2023-05-04T04:34:20.511Z,28.12
2023-05-04T04:35:21.130Z,28.12
2023-05-04T04:36:21.822Z,33.75
2023-05-04T04:37:21.882Z,33.75
2023-05-04T04:38:22.513Z,33.75
2023-05-04T04:39:23.165Z,33.75
2023-05-04T04:40:23.245Z,33.75
2023-05-04T04:41:23.886Z,33.75
2023-05-04T04:42:24.515Z,39.38
2023-05-04T04:43:25.173Z,39.38
2023-05-04T04:44:25.814Z,39.38
2023-05-04T04:45:26.460Z,39.38
2023-05-04T04:46:27.129Z,39.38
2023-05-04T04:47:27.203Z,39.38
2023-05-04T04:48:27.853Z,39.38
2023-05-04T04:49:28.495Z,45.00
2023-05-04T04:50:29.146Z,45.00
2023-05-04T04:51:29.772Z,45.00
2023-05-04T04:52:30.393Z,45.00
2023-05-04T04:53:31.131Z,45.00
2023-05-04T04:54:31.195Z,45.00
2023-05-04T04:55:31.958Z,45.00
2023-05-04T04:56:32.028Z,45.00
2023-05-04T04:57:32.648Z,45.00
2023-05-04T04:58:33.270Z,45.00
2023-05-04T04:59:33.875Z,50.62
2023-05-04T05:00:34.484Z,50.62
2023-05-04T05:01:35.239Z,50.62
2023-05-04T05:02:35.332Z,50.62
2023-05-04T05:03:35.399Z,50.62
2023-05-04T05:04:36.097Z,50.62
2023-05-04T05:05:36.146Z,50.62
2023-05-04T05:06:36.819Z,50.62
2023-05-04T05:07:36.856Z,50.62
2023-05-04T05:08:37.495Z,56.25
2023-05-04T05:09:38.135Z,56.25
2023-05-04T05:10:38.803Z,56.25
2023-05-04T05:11:38.882Z,56.25
2023-05-04T05:12:39.540Z,56.25
2023-05-04T05:13:40.161Z,56.25
2023-05-04T05:14:40.767Z,56.25
2023-05-04T05:15:41.379Z,56.25
2023-05-04T05:16:42.014Z,56.25
2023-05-04T05:17:42.693Z,56.25
2023-05-04T05:18:42.775Z,56.25
2023-05-04T05:19:43.461Z,61.88
2023-05-04T05:20:43.676Z,61.88
2023-05-04T05:21:43.775Z,61.88
2023-05-04T05:22:44.405Z,61.88
2023-05-04T05:23:45.017Z,61.88
2023-05-04T05:24:45.615Z,61.88
2023-05-04T05:25:46.224Z,67.50
2023-05-04T05:26:46.829Z,67.50
2023-05-04T05:27:47.436Z,67.50
2023-05-04T05:28:48.050Z,67.50
2023-05-04T05:29:48.661Z,67.50
2023-05-04T05:30:49.313Z,67.50
2023-05-04T05:31:49.937Z,73.12
2023-05-04T05:32:50.574Z,73.12
2023-05-04T05:33:51.172Z,73.12
2023-05-04T05:34:51.752Z,73.12
2023-05-04T05:35:52.333Z,73.12
2023-05-04T05:36:52.932Z,73.12
2023-05-04T05:37:53.532Z,73.12
2023-05-04T05:38:54.143Z,73.12
2023-05-04T05:39:54.777Z,73.12
2023-05-04T05:40:55.401Z,73.12
2023-05-04T05:41:56.018Z,73.12
2023-05-04T05:42:56.671Z,73.12
2023-05-04T05:43:57.315Z,73.12
2023-05-04T05:44:57.925Z,73.12
2023-05-04T05:45:58.574Z,73.12
2023-05-04T05:46:58.648Z,73.12
2023-05-04T05:47:59.357Z,73.12
2023-05-04T05:48:59.405Z,73.12
2023-05-04T05:50:00.044Z,78.75
2023-05-04T05:51:00.667Z,78.75
2023-05-04T05:52:01.297Z,78.75
2023-05-04T05:53:01.916Z,78.75
2023-05-04T05:54:02.581Z,78.75
2023-05-04T05:55:03.019Z,78.75
2023-05-04T05:56:03.178Z,78.75
2023-05-04T05:57:03.790Z,78.75
2023-05-04T05:58:04.395Z,78.75
2023-05-04T05:59:05.024Z,78.75
2023-05-04T06:00:05.873Z,78.75
2023-05-04T06:01:06.100Z,78.75
2023-05-04T06:02:06.708Z,78.75
2023-05-04T06:03:07.309Z,78.75
2023-05-04T06:04:07.602Z,78.75
2023-05-04T06:05:07.848Z,78.75
2023-05-04T06:06:07.896Z,78.75
2023-05-04T06:07:08.534Z,78.75
2023-05-04T06:08:09.130Z,73.12
2023-05-04T06:09:09.748Z,78.75
2023-05-04T06:10:10.371Z,78.75
2023-05-04T06:11:10.960Z,78.75
2023-05-04T06:12:11.548Z,78.75
2023-05-04T06:13:12.199Z,78.75
2023-05-04T06:14:12.289Z,78.75
2023-05-04T06:15:12.902Z,78.75
2023-05-04T06:16:13.550Z,78.75
2023-05-04T06:17:13.585Z,78.75
2023-05-04T06:18:14.196Z,78.75
2023-05-04T06:19:14.819Z,78.75
2023-05-04T06:20:15.460Z,78.75
2023-05-04T06:21:16.056Z,78.75
2023-05-04T06:22:16.657Z,78.75
2023-05-04T06:23:17.283Z,78.75
2023-05-04T06:24:17.890Z,78.75
2023-05-04T06:25:18.490Z,78.75
2023-05-04T06:26:19.091Z,78.75
2023-05-04T06:27:19.697Z,78.75
2023-05-04T06:28:20.295Z,78.75
2023-05-04T06:29:20.875Z,78.75
2023-05-04T06:30:21.456Z,78.75
2023-05-04T06:31:22.091Z,78.75
2023-05-04T06:32:22.191Z,78.75
2023-05-04T06:33:22.286Z,78.75
2023-05-04T06:34:22.345Z,78.75
2023-05-04T06:35:23.011Z,78.75
2023-05-04T06:36:23.077Z,78.75
2023-05-04T06:37:23.134Z,78.75
2023-05-04T06:38:23.195Z,78.75
2023-05-04T06:39:23.277Z,78.75
2023-05-04T06:40:23.350Z,78.75
2023-05-04T06:41:23.488Z,78.75
2023-05-04T06:42:23.609Z,78.75
2023-05-04T06:43:23.656Z,84.38
2023-05-04T06:44:24.280Z,84.38
2023-05-04T06:45:24.351Z,84.38
2023-05-04T06:46:24.390Z,84.38
2023-05-04T06:47:24.458Z,84.38
2023-05-04T06:48:24.506Z,84.38
2023-05-04T06:49:24.537Z,84.38
2023-05-04T06:50:25.141Z,84.38
2023-05-04T06:51:25.755Z,84.38
2023-05-04T06:52:26.360Z,84.38
2023-05-04T06:53:27.047Z,84.38
2023-05-04T06:54:27.080Z,84.38
2023-05-04T06:55:27.715Z,84.38
2023-05-04T06:56:27.772Z,84.38
2023-05-04T06:57:27.828Z,84.38
2023-05-04T06:58:27.851Z,84.38
2023-05-04T06:59:28.461Z,84.38
2023-05-04T07:00:30.100Z,84.38
2023-05-04T07:01:29.595Z,84.38
2023-05-04T07:02:29.643Z,90.00
2023-05-04T07:03:29.731Z,90.00
2023-05-04T07:04:29.815Z,90.00
2023-05-04T07:05:29.860Z,90.00
2023-05-04T07:06:31.467Z,90.00
2023-05-04T07:07:30.906Z,90.00
2023-05-04T07:08:30.923Z,90.00
2023-05-04T07:09:31.533Z,90.00
2023-05-04T07:10:31.549Z,90.00
2023-05-04T07:11:32.149Z,90.00
2023-05-04T07:12:32.818Z,90.00
2023-05-04T07:13:32.834Z,95.62
2023-05-04T07:14:32.863Z,95.62
2023-05-04T07:15:32.918Z,95.62
2023-05-04T07:16:33.054Z,95.62
2023-05-04T07:17:33.207Z,95.62
2023-05-04T07:18:33.265Z,95.62
2023-05-04T07:19:33.297Z,95.62
2023-05-04T07:20:33.315Z,95.62
2023-05-04T07:21:33.349Z,95.62
2023-05-04T07:22:33.380Z,95.62
2023-05-04T07:23:33.401Z,95.62
2023-05-04T07:24:33.410Z,95.62
2023-05-04T07:25:35.086Z,95.62
2023-05-04T07:26:34.043Z,95.62
2023-05-04T07:27:34.376Z,101.25
2023-05-04T07:28:34.400Z,101.25
2023-05-04T07:29:34.400Z,101.25
2023-05-04T07:30:34.410Z,101.25
2023-05-04T07:31:34.449Z,101.25
2023-05-04T07:32:34.510Z,101.25
2023-05-04T07:33:34.536Z,101.25
2023-05-04T07:34:45.091Z,101.25
2023-05-04T07:35:35.405Z,101.25
2023-05-04T07:36:35.950Z,101.25
2023-05-04T07:37:36.496Z,101.25
2023-05-04T07:38:37.111Z,106.88
2023-05-04T07:39:37.060Z,106.88
2023-05-04T07:40:37.610Z,106.88
2023-05-04T07:41:38.175Z,106.88
2023-05-04T07:42:38.719Z,106.88
2023-05-04T07:43:39.260Z,106.88
2023-05-04T07:44:39.789Z,106.88
2023-05-04T07:45:40.284Z,106.88
2023-05-04T07:46:40.854Z,106.88
2023-05-04T07:47:40.869Z,112.50
2023-05-04T07:48:40.793Z,112.50
2023-05-04T07:49:41.294Z,112.50
2023-05-04T07:50:41.801Z,112.50
2023-05-04T07:51:42.302Z,112.50
2023-05-04T07:52:42.803Z,112.50
2023-05-04T07:53:43.302Z,112.50
2023-05-04T07:54:43.779Z,112.50
2023-05-04T07:55:44.263Z,112.50
2023-05-04T07:56:44.750Z,118.12
2023-05-04T07:57:45.250Z,118.12
2023-05-04T07:58:45.748Z,118.12
2023-05-04T07:59:46.247Z,118.12
2023-05-04T08:00:46.724Z,118.12
2023-05-04T08:01:47.343Z,118.12
2023-05-04T08:02:47.340Z,118.12
2023-05-04T08:03:47.371Z,118.12
2023-05-04T08:04:47.886Z,118.12
2023-05-04T08:05:48.391Z,118.12
2023-05-04T08:06:48.909Z,118.12
2023-05-04T08:07:49.397Z,118.12
2023-05-04T08:08:52.539Z,118.12
2023-05-04T08:09:49.907Z,118.12
2023-05-04T08:10:50.392Z,118.12
2023-05-04T08:11:50.860Z,118.12
2023-05-04T08:12:51.391Z,118.12
2023-05-04T08:13:51.880Z,118.12
2023-05-04T08:14:52.349Z,118.12
2023-05-04T08:15:52.843Z,118.12
2023-05-04T08:16:53.320Z,118.12
2023-05-04T08:17:53.859Z,123.75
2023-05-04T08:18:54.351Z,123.75
2023-05-04T08:19:54.837Z,123.75
2023-05-04T08:20:55.320Z,123.75
2023-05-04T08:21:55.800Z,123.75
2023-05-04T08:22:56.343Z,123.75
2023-05-04T08:23:57.072Z,123.75
2023-05-04T08:24:57.023Z,123.75
2023-05-04T08:25:57.512Z,129.38
2023-05-04T08:27:06.960Z,129.38
2023-05-04T08:27:58.157Z,129.38
2023-05-04T08:28:58.639Z,129.38
2023-05-04T08:29:59.117Z,129.38
2023-05-04T08:30:59.589Z,129.38
2023-05-04T08:32:00.257Z,129.38
2023-05-04T08:33:00.286Z,129.38
2023-05-04T08:34:00.802Z,129.38
2023-05-04T08:35:01.360Z,129.38
2023-05-04T08:36:01.264Z,129.38
2023-05-04T08:37:01.805Z,129.38
2023-05-04T08:38:02.266Z,129.38
2023-05-04T08:39:02.761Z,129.38
2023-05-04T08:40:03.235Z,135.00
2023-05-04T08:41:03.802Z,135.00
2023-05-04T08:42:03.724Z,135.00
2023-05-04T08:43:04.192Z,135.00
2023-05-04T08:44:04.647Z,135.00
2023-05-04T08:45:05.486Z,135.00
2023-05-04T08:46:05.581Z,135.00
2023-05-04T08:47:05.505Z,135.00
2023-05-04T08:48:06.011Z,135.00
2023-05-04T08:49:06.508Z,135.00
2023-05-04T08:50:07.045Z,140.62
2023-05-04T08:51:07.531Z,140.62
2023-05-04T08:52:07.996Z,140.62
2023-05-04T08:53:08.464Z,140.62
2023-05-04T08:54:08.935Z,140.62
2023-05-04T08:55:09.407Z,140.62
2023-05-04T08:56:09.877Z,140.62
2023-05-04T08:57:10.354Z,140.62
2023-05-04T08:58:10.839Z,140.62
2023-05-04T08:59:11.365Z,140.62
2023-05-04T09:00:11.845Z,140.62
2023-05-04T09:01:12.401Z,140.62
2023-05-04T09:02:12.386Z,146.25
2023-05-04T09:03:12.461Z,146.25
2023-05-04T09:04:12.404Z,146.25
2023-05-04T09:05:12.879Z,146.25
2023-05-04T09:06:13.354Z,146.25
2023-05-04T09:07:13.824Z,146.25
2023-05-04T09:08:14.290Z,146.25
2023-05-04T09:09:14.779Z,146.25
2023-05-04T09:10:15.277Z,146.25
2023-05-04T09:11:15.743Z,151.88
2023-05-04T09:12:16.192Z,151.88
2023-05-04T09:13:16.713Z,151.88
2023-05-04T09:14:16.637Z,151.88
2023-05-04T09:15:17.125Z,151.88
2023-05-04T09:16:17.602Z,151.88
2023-05-04T09:17:18.157Z,151.88
2023-05-04T09:18:18.644Z,151.88
2023-05-04T09:19:18.620Z,157.50
2023-05-04T09:20:19.099Z,157.50
2023-05-04T09:21:19.545Z,157.50
2023-05-04T09:22:19.991Z,157.50
2023-05-04T09:23:20.007Z,157.50
2023-05-04T09:24:20.473Z,157.50
2023-05-04T09:25:20.914Z,157.50
2023-05-04T09:26:21.372Z,157.50
2023-05-04T09:27:21.880Z,157.50
2023-05-04T09:28:22.344Z,157.50
2023-05-04T09:29:22.797Z,157.50
2023-05-04T09:30:23.264Z,157.50
2023-05-04T09:31:23.830Z,157.50
2023-05-04T09:32:23.952Z,157.50
2023-05-04T09:33:23.928Z,157.50
2023-05-04T09:34:23.789Z,157.50
2023-05-04T09:35:32.437Z,157.50
2023-05-04T09:36:24.413Z,157.50
2023-05-04T09:37:24.885Z,163.12
2023-05-04T09:38:25.350Z,163.12
2023-05-04T09:39:25.820Z,163.12
2023-05-04T09:40:26.263Z,163.12
2023-05-04T09:41:26.698Z,163.12
2023-05-04T09:42:27.252Z,163.12
2023-05-04T09:43:27.142Z,168.75
2023-05-04T09:44:29.391Z,168.75
2023-05-04T09:45:27.800Z,168.75
2023-05-04T09:46:28.321Z,168.75
2023-05-04T09:47:28.231Z,168.75
2023-05-04T09:48:28.697Z,168.75
2023-05-04T09:49:29.153Z,174.38
2023-05-04T09:50:29.607Z,174.38
2023-05-04T09:51:30.073Z,174.38
2023-05-04T09:52:30.551Z,174.38
2023-05-04T09:53:30.993Z,180.00
2023-05-04T09:54:31.425Z,180.00
2023-05-04T09:55:31.859Z,180.00
2023-05-04T09:56:32.308Z,180.00
2023-05-04T09:57:32.232Z,180.00
2023-05-04T09:58:32.692Z,180.00
2023-05-04T09:59:33.129Z,185.62
2023-05-04T10:00:33.539Z,185.62
2023-05-04T10:01:33.968Z,185.62
2023-05-04T10:02:34.546Z,185.62
2023-05-04T10:03:34.522Z,185.62
2023-05-04T10:04:34.964Z,185.62
2023-05-04T10:05:35.482Z,185.62
2023-05-04T10:06:35.343Z,185.62
2023-05-04T10:07:35.778Z,191.25
2023-05-04T10:08:36.199Z,191.25
2023-05-04T10:09:36.646Z,191.25
2023-05-04T10:10:37.085Z,191.25
2023-05-04T10:11:37.512Z,191.25
2023-05-04T10:12:38.019Z,196.88
2023-05-04T10:13:37.912Z,196.88
2023-05-04T10:14:38.345Z,196.88
2023-05-04T10:15:38.786Z,196.88
2023-05-04T10:16:39.280Z,196.88
2023-05-04T10:17:39.312Z,202.50
2023-05-04T10:18:39.196Z,202.50
2023-05-04T10:19:39.615Z,202.50
2023-05-04T10:20:40.027Z,202.50
2023-05-04T10:21:40.447Z,208.12
2023-05-04T10:22:40.858Z,208.12
2023-05-04T10:23:41.260Z,208.12
2023-05-04T10:24:41.681Z,208.12
2023-05-04T10:25:42.117Z,208.12
2023-05-04T10:26:42.532Z,208.12
2023-05-04T10:27:42.943Z,208.12
2023-05-04T10:28:43.359Z,208.12
2023-05-04T10:29:43.797Z,213.75
2023-05-04T10:30:44.221Z,213.75
2023-05-04T10:31:44.687Z,213.75
2023-05-04T10:32:45.173Z,213.75
2023-05-04T10:33:45.640Z,219.38
2023-05-04T10:34:46.096Z,219.38
2023-05-04T10:35:46.540Z,219.38
2023-05-04T10:36:46.961Z,225.00
2023-05-04T10:37:47.378Z,225.00
2023-05-04T10:38:47.807Z,225.00
2023-05-04T10:39:48.254Z,236.25
2023-05-04T10:40:48.669Z,236.25
2023-05-04T10:41:49.104Z,241.88
2023-05-04T10:42:49.505Z,247.50
2023-05-04T10:43:49.916Z,253.12
2023-05-04T10:44:50.337Z,258.75
2023-05-04T10:45:50.795Z,264.38
2023-05-04T10:46:51.217Z,270.00
2023-05-04T10:47:51.653Z,275.62
2023-05-04T10:48:52.103Z,286.88
2023-05-04T10:49:52.535Z,292.50
2023-05-04T10:50:52.994Z,303.75
2023-05-04T10:51:53.431Z,303.75
2023-05-04T10:52:53.935Z,315.00
2023-05-04T10:53:53.796Z,326.25
2023-05-04T10:54:54.229Z,331.88
2023-05-04T10:55:54.706Z,331.88
2023-05-04T10:56:55.110Z,337.50
2023-05-04T10:57:55.531Z,343.12
2023-05-04T10:58:55.971Z,354.38
2023-05-04T10:59:56.416Z,360.00
2023-05-04T11:00:56.863Z,371.25
2023-05-04T11:01:57.301Z,382.50
2023-05-04T11:02:57.794Z,393.75
2023-05-04T11:03:57.679Z,405.00
2023-05-04T11:04:58.115Z,421.88
2023-05-04T11:05:58.519Z,427.50
2023-05-04T11:06:58.947Z,433.12
2023-05-04T11:08:00.495Z,444.38
2023-05-04T11:08:59.864Z,450.00
2023-05-04T11:10:00.300Z,455.62
2023-05-04T11:11:00.725Z,461.25
2023-05-04T11:12:01.390Z,472.50
2023-05-04T11:13:02.741Z,495.00
2023-05-04T11:14:01.176Z,506.25
2023-05-04T11:15:01.598Z,517.50
2023-05-04T11:16:02.096Z,523.12
2023-05-04T11:17:03.840Z,528.75
2023-05-04T11:18:02.057Z,540.00
2023-05-04T11:19:01.914Z,551.25
2023-05-04T11:20:02.329Z,562.50
2023-05-04T11:21:02.749Z,573.75
2023-05-04T11:22:03.159Z,579.38
2023-05-04T11:23:03.571Z,590.62
2023-05-04T11:24:03.949Z,601.88
2023-05-04T11:25:04.564Z,607.50
2023-05-04T11:26:04.624Z,618.75
2023-05-04T11:27:05.021Z,618.75
2023-05-04T11:28:05.416Z,630.00
2023-05-04T11:29:05.836Z,635.62
2023-05-04T11:30:06.250Z,641.25
2023-05-04T11:31:06.687Z,641.25
2023-05-04T11:32:06.564Z,641.25
2023-05-04T11:33:06.976Z,646.88
2023-05-04T11:34:07.380Z,652.50
2023-05-04T11:35:07.964Z,646.88
2023-05-04T11:36:08.015Z,646.88
2023-05-04T11:37:08.419Z,646.88
2023-05-04T11:38:08.814Z,652.50
2023-05-04T11:39:09.220Z,658.12
2023-05-04T11:40:09.628Z,663.75
2023-05-04T11:41:10.073Z,663.75
2023-05-04T11:42:10.452Z,675.00
2023-05-04T11:43:10.857Z,691.88
2023-05-04T11:44:11.249Z,686.25
2023-05-04T11:45:11.621Z,697.50
2023-05-04T11:46:12.087Z,697.50
2023-05-04T11:47:11.918Z,708.75
2023-05-04T11:48:12.293Z,708.75
2023-05-04T11:49:12.675Z,725.62
2023-05-04T11:50:13.144Z,736.88
2023-05-04T11:51:13.010Z,742.50
2023-05-04T11:52:13.392Z,753.75
2023-05-04T11:53:13.764Z,753.75
2023-05-04T11:54:14.146Z,753.75
2023-05-04T11:55:14.494Z,725.62
2023-05-04T11:56:14.842Z,714.38
2023-05-04T11:57:15.190Z,725.62
2023-05-04T11:58:15.079Z,787.50
2023-05-04T11:59:15.429Z,916.88
2023-05-04T12:00:15.794Z,1327.50
2023-05-04T12:01:16.201Z,1968.75
2023-05-04T12:02:16.603Z,2756.25
2023-05-04T12:03:16.591Z,2902.50
2023-05-04T12:04:16.536Z,2964.38
2023-05-04T12:05:16.378Z,2970.00
2023-05-04T12:06:16.221Z,3301.88
2023-05-04T12:07:15.867Z,3391.88
2023-05-04T12:08:16.193Z,3757.50
2023-05-04T12:09:16.530Z,3802.50
2023-05-04T12:10:16.860Z,3673.12
2023-05-04T12:11:17.177Z,3780.00
2023-05-04T12:12:17.498Z,4016.25
2023-05-04T12:13:17.944Z,4005.00
2023-05-04T12:14:17.712Z,3988.12
2023-05-04T12:15:18.008Z,3931.88
2023-05-04T12:16:18.424Z,4055.62
2023-05-04T12:17:18.180Z,4359.38
2023-05-04T12:18:18.442Z,4545.00
2023-05-04T12:19:18.701Z,4539.38
2023-05-04T12:20:18.946Z,4590.00
2023-05-04T12:21:19.205Z,4578.75
2023-05-04T12:22:19.454Z,4989.38
2023-05-04T12:23:19.697Z,5023.12
2023-05-04T12:24:19.961Z,4961.25
2023-05-04T12:25:20.199Z,4995.00
2023-05-04T12:26:21.429Z,5394.38
2023-05-04T12:27:21.471Z,5535.00
2023-05-04T12:28:21.507Z,5765.62
2023-05-04T12:29:20.577Z,5518.12
2023-05-04T12:30:20.804Z,5422.50
2023-05-04T12:31:22.387Z,5349.38
2023-05-04T12:32:20.979Z,5276.25
2023-05-04T12:33:21.200Z,5208.75
2023-05-04T12:34:21.457Z,5445.00
2023-05-04T12:35:21.676Z,5670.00
2023-05-04T12:36:21.867Z,5641.88
2023-05-04T12:37:24.476Z,5461.88
2023-05-04T12:38:21.738Z,5298.75
2023-05-04T12:39:21.928Z,4933.12
2023-05-04T12:41:21.947Z,5315.62
2023-05-04T12:42:22.135Z,5281.88
2023-05-04T12:43:22.312Z,5214.38
2023-05-04T12:44:22.510Z,5197.50
2023-05-04T12:45:22.801Z,4539.38
2023-05-04T12:46:22.527Z,4230.00
2023-05-04T12:47:22.392Z,4910.62
2023-05-04T12:48:22.080Z,5135.62
2023-05-04T12:49:24.094Z,4972.50
2023-05-04T12:50:21.950Z,5208.75
2023-05-04T12:51:22.161Z,5034.38
2023-05-04T12:52:22.350Z,4848.75
2023-05-04T12:53:22.651Z,4837.50
2023-05-04T12:54:22.290Z,4983.75
2023-05-04T12:55:24.755Z,5186.25